Weather observations for the past three days for
Plant City, Plant City Municipal Airport
Imperial (Metric)
Date Time (edt) Wind (mph) Vis. (mi.) Weather Sky Cond. Temperature (ºF) Relative Humidity Wind Chill (°F) Heat Index (°F) Pressure Precipitation (in)
Air Dwpt 6 hour altimeter (in) sea level (mb) 1 hr 3 hr 6 hr
Max. Min.
05 06:35 NE 3 10.00 A Few Clouds FEW050 64 62.8 96% 29.98 0.0
05 06:15 NE 3 10.00 Fair CLR 64.6 63 95% 29.98 0.0
05 05:55 Calm 10.00 Fair CLR 65.8 63.7 93% 29.98 0.0
05 05:35 NE 5 10.00 Fair CLR 66 63.5 92% 29.97 0.0
05 05:15 NE 6 10.00 Fair CLR 65.7 63.3 92% 29.97 0.0
05 04:55 E 5 10.00 Fair CLR 66 63.3 91% 29.97 0.0
05 04:35 E 5 10.00 Fair CLR 65.7 63.1 92% 29.96 0.0
05 04:15 E 3 10.00 Fair CLR 66.4 63 89% 29.96 0.0
05 03:55 E 6 9.00 Fair CLR 66.7 63 88% 29.96 0.0
05 03:35 E 5 9.00 Fair CLR 67.1 62.8 86% 29.97 0.0
05 03:15 E 5 9.00 Fair CLR 67.1 62.6 86% 29.97 0.0
05 02:55 E 6 9.00 Fair CLR 67.3 62.4 85% 29.98 0.0
05 02:35 E 5 9.00 Fair CLR 67.6 62.4 83% 29.98 0.0
05 02:15 E 5 9.00 Fair CLR 67.8 62.4 83% 29.99 0.0
05 01:55 E 5 9.00 Fair CLR 68 62.1 75.6 68 81% 30 0.0
05 01:35 E 3 9.00 Fair CLR 68.4 61.9 80% 30 0.0
05 01:15 E 5 9.00 Fair CLR 68.9 62.1 79% 30.01 0.0
05 00:55 E 6 9.00 A Few Clouds FEW060 69.1 61.9 78% 30.01 0.0
05 00:35 E 6 9.00 Partly Cloudy SCT060 69.3 61.7 77% 30.01 0.0
05 00:15 E 5 10.00 A Few Clouds FEW055 69.8 61.5 75% 30.02 0.0
04 23:55 E 6 9.00 Fair CLR 70 61.3 74% 30.02 0.0
04 23:35 E 8 9.00 Fair CLR 70.2 61.2 73% 30.02 0.0
04 23:15 E 6 10.00 Fair CLR 70.7 61 71% 30.02 0.0
04 22:55 E 8 10.00 Fair CLR 71.1 60.4 69% 30.02 0.0
04 22:35 E 8 10.00 Fair CLR 71.6 60.3 68% 30.02 0.0
04 22:15 E 7 10.00 Fair CLR 71.6 60.3 68% 30.01 0.0
04 21:55 E 9 9.00 Fair CLR 72.3 60.3 66% 30 0.0
04 21:35 E 7 10.00 Fair CLR 72.7 60.1 65% 30 0.0
04 21:15 E 10 10.00 Fair CLR 73.2 60.1 64% 29.99 0.0
04 20:55 E 7 9.00 Fair CLR 73.8 60.3 63% 29.98 0.0
04 20:35 E 10 10.00 Fair CLR 74.5 60.1 61% 29.98 0.0
04 20:15 E 7 9.00 A Few Clouds FEW060 75 60.3 60% 77 29.98 0.0
04 19:55 E 10 G 18 9.00 Partly Cloudy SCT060 76.1 60.3 84.2 76.1 58% 78 29.96 0.0
04 19:35 E 9 10.00 A Few Clouds FEW080 77 60.1 56% 79 29.96 0.0
04 19:15 E 9 G 16 9.00 Mostly Cloudy BKN080 77.9 60.1 54% 79 29.95 0.0
04 18:55 E 14 G 18 9.00 Mostly Cloudy BKN065 BKN080 79.5 59.9 51% 80 29.95 0.0
04 18:35 E 10 8.00 Mostly Cloudy SCT055 BKN070 79.2 59.5 51% 80 29.95 0.0
04 18:15 E 7 9.00 Partly Cloudy SCT065 SCT085 80.2 59.5 49% 81 29.95 0.0
04 17:55 SE 9 9.00 A Few Clouds FEW050 81.9 58.6 45% 82 29.95 0.0
04 17:35 E 13 10.00 Partly Cloudy SCT065 81.9 59.4 47% 82 29.95 0.0
04 17:15 E 9 9.00 Partly Cloudy FEW055 SCT075 82.8 57.7 43% 82 29.95 0.0
04 16:55 NE 15 G 22 10.00 Partly Cloudy SCT055 SCT070 83.1 58.3 43% 83 29.95 0.0
04 16:35 NE 10 G 17 10.00 Partly Cloudy SCT060 SCT075 83.7 57.6 41% 83 29.95 0.0
04 16:15 E 9 10.00 Mostly Cloudy SCT060 BKN075 82 57 43% 82 29.96 0.0
04 15:55 NE 7 10.00 Partly Cloudy SCT060 83.3 56.5 40% 83 29.97 0.0
04 15:35 Vrbl 5 10.00 Partly Cloudy SCT060 82 55.4 40% 81 29.98 0.0
04 15:15 Calm 10.00 Partly Cloudy SCT060 SCT250 81.9 54.5 39% 81 29.98 0.0
04 14:55 NE 8 9.00 Partly Cloudy SCT060 SCT370 81.9 54.9 40% 81 29.99 0.0
04 14:35 Vrbl 5 10.00 Fair CLR 81.5 54.1 39% 81 30 0.0
04 14:15 NE 13 G 17 9.00 A Few Clouds FEW060 82 54.3 39% 81 30.01 0.0
04 13:55 E 10 10.00 Mostly Cloudy BKN060 BKN360 81.1 54.3 82.2 65.1 40% 81 30.02 0.0
04 13:35 NE 9 G 16 10.00 Mostly Cloudy BKN060 80.6 55.4 42% 81 30.03 0.0
04 13:15 NE 12 10.00 Partly Cloudy SCT060 81.1 54.9 40% 81 30.03 0.0
04 12:55 Vrbl 6 10.00 A Few Clouds FEW055 80.2 54.9 42% 80 30.04 0.0
04 12:35 NE 9 10.00 A Few Clouds FEW055 79.7 54.9 42% 80 30.04 0.0
04 12:15 E 9 10.00 A Few Clouds FEW050 80.1 54.9 42% 80 30.05 0.0
04 11:55 NE 12 9.00 A Few Clouds FEW050 78.6 55 44% 79 30.06 0.0
04 11:35 E 10 9.00 Fair CLR 78.8 54.9 44% 79 30.06 0.0
04 11:15 NE 8 9.00 Fair CLR 78.3 53.8 43% 79 30.06 0.0
04 10:55 NE 13 10.00 Fair CLR 76.8 53.1 44% 78 30.06 0.0
04 10:35 NE 14 10.00 Fair CLR 76.6 53.8 45% 78 30.06 0.0
04 10:15 NE 16 10.00 Fair CLR 75.6 56.5 52% 78 30.05 0.0
04 09:55 NE 9 9.00 Fair CLR 74.5 58.8 58% 30.06 0.0
04 09:35 NE 15 10.00 Fair CLR 73.2 58.5 60% 30.05 0.0
04 09:15 NE 10 9.00 Fair CLR 71.8 59.5 65% 30.05 0.0
04 08:55 NE 12 10.00 Fair CLR 69.1 59.2 71% 30.04 0.0
04 08:35 NE 12 9.00 Fair CLR 68.2 58.8 72% 30.04 0.0
04 08:15 NE 6 9.00 Fair CLR 66.6 59 77% 30.04 0.0
04 07:55 NE 7 9.00 Fair CLR 64 59.4 66.2 61.2 85% 30.03 0.0
04 07:35 NE 5 8.00 Fair CLR 63 59.2 88% 30.03 0.0
04 07:15 N 6 8.00 Fair CLR 62.8 58.6 86% 30.02 0.0
04 06:55 NE 5 9.00 Fair CLR 61.2 58.8 92% 30.02 0.0
04 06:35 N 6 9.00 Fair CLR 61.3 58.8 91% 30.02 0.0
04 06:15 N 6 10.00 Fair CLR 61.7 59 91% 30.02 0.0
04 05:55 N 7 10.00 Fair CLR 61.5 59.2 92% 30.01 0.0
04 05:35 N 5 9.00 Fair CLR 61.5 59.4 93% 30.01 0.0
04 05:15 N 6 9.00 Fair CLR 61.7 59.5 93% 30.01 0.0
04 04:55 N 5 9.00 Fair CLR 62.2 59.5 91% 30.01 0.0
04 04:35 N 5 9.00 A Few Clouds FEW160 62.8 59.9 90% 30.01 0.0
04 04:15 N 5 10.00 Partly Cloudy SCT150 63.3 59.7 88% 30.01 0.0
04 03:55 NE 5 10.00 Overcast OVC150 64 59.9 87% 30.01 0.0
04 03:35 N 6 10.00 Overcast OVC150 64.4 60.1 86% 30.02 0.0
04 03:15 N 3 10.00 Overcast BKN160 OVC180 64.6 60.3 86% 30.02 0.0
04 02:55 N 5 10.00 Overcast OVC180 65.3 60.3 84% 30.03 0.0
04 02:35 N 3 10.00 Overcast OVC170 65.7 60.4 83% 30.02 0.0
04 02:15 NE 5 10.00 Overcast OVC170 65.3 60.4 84% 30.02 0.0
04 01:55 N 5 10.00 Overcast OVC170 66.4 60.1 73.9 66.4 80% 30.03 0.0
04 01:35 N 5 10.00 Mostly Cloudy BKN170 67.3 60.4 79% 30.03 0.0
04 01:15 NE 7 10.00 Mostly Cloudy BKN160 67.5 60.3 78% 30.03 0.0
04 00:55 NE 6 10.00 Mostly Cloudy BKN150 68 60.1 76% 30.05 0.0
04 00:35 NE 6 10.00 Partly Cloudy SCT160 68.2 60.1 75% 30.06 0.0
04 00:15 NE 5 10.00 Partly Cloudy SCT160 68 60.8 78% 30.06 0.0
03 23:55 NE 6 10.00 Mostly Cloudy BKN160 69.3 60.1 73% 30.06 0.0
03 23:35 E 5 10.00 Mostly Cloudy BKN170 69.3 60.1 73% 30.06 0.0
03 23:15 E 5 10.00 Mostly Cloudy BKN170 69.8 59.9 71% 30.05 0.0
03 22:55 E 7 10.00 Overcast OVC170 70.3 60.1 70% 30.05 0.0
03 22:35 E 7 10.00 Overcast OVC170 70.5 60.4 71% 30.05 0.0
03 22:15 E 8 9.00 Overcast OVC160 70.7 60.4 70% 30.04 0.0
03 21:55 E 8 10.00 Overcast OVC160 71.1 60.3 69% 30.04 0.0
03 21:35 E 7 10.00 Mostly Cloudy BKN160 71.2 60.4 69% 30.03 0.0
03 21:15 E 8 10.00 Partly Cloudy SCT160 71.2 60.8 70% 30.03 0.0
03 20:55 E 7 10.00 A Few Clouds FEW055 72 60.6 68% 30.02 0.0
03 20:35 E 7 10.00 A Few Clouds FEW055 72.3 61.2 68% 30.01 0.0
03 20:15 E 9 9.00 Partly Cloudy FEW047 SCT060 73.4 61.2 66% 30.01 0.0
03 19:55 E 6 9.00 A Few Clouds FEW170 74.3 60.8 79.3 74.3 63% 30 0.0
03 19:35 E 6 9.00 A Few Clouds FEW050 74.7 61 63% 30 0.0
03 19:15 E 8 9.00 Mostly Cloudy BKN050 BKN060 76.1 60.4 58% 78 29.99 0.0
03 18:55 E 8 10.00 Overcast BKN048 OVC060 76.6 59.9 56% 78 29.99 0.0
03 18:35 E 10 10.00 Mostly Cloudy SCT050 BKN060 BKN170 77.7 60.3 55% 79 29.99 0.0
03 18:15 NE 7 10.00 Mostly Cloudy BKN050 BKN170 77.7 59.4 53% 79 29.99 0.0
03 17:55 E 6 9.00 Mostly Cloudy BKN046 77.9 59.4 53% 79 29.99 0.0
03 17:35 E 9 10.00 Mostly Cloudy BKN045 78.8 59.4 51% 80 29.99 0.0
03 17:15 NE 7 10.00 Partly Cloudy SCT045 78.4 59.4 52% 80 29.99 0.0
03 16:55 E 9 10.00 Mostly Cloudy BKN044 79.3 59.5 51% 80 30 0.0
03 16:35 NE 8 10.00 Mostly Cloudy SCT046 BKN150 77.4 58.8 53% 79 30 0.0
03 16:15 NE 6 10.00 Mostly Cloudy SCT044 BKN150 78.8 59 51% 80 30.01 0.0
03 15:55 E 9 10.00 Partly Cloudy SCT043 78.3 59.7 53% 80 30.01 0.0
03 15:35 NE 12 10.00 Mostly Cloudy SCT040 BKN150 78.1 60.1 54% 79 30.02 0.0
03 14:55 NE 9 10.00 Partly Cloudy SCT037 75.9 60.1 58% 78 30.05 0.0
03 14:35 NE 12 G 16 10.00 Mostly Cloudy BKN034 BKN170 76.6 61.2 59% 78 30.05 0.0
03 14:15 NE 9 10.00 Mostly Cloudy BKN033 75.2 61.2 62% 77 30.06 0.0
03 13:55 NE 9 G 16 10.00 Mostly Cloudy SCT031 BKN370 75.6 61.5 76.1 62.6 62% 78 30.07 0.0
03 13:35 N 13 10.00 Mostly Cloudy SCT031 BKN060 75.4 61.7 63% 77 30.07 0.0
03 13:15 NE 9 10.00 Overcast BKN030 OVC060 73.6 61.5 66% 30.07 0.0
03 12:55 NE 12 G 16 10.00 Overcast BKN026 OVC055 73.2 61.3 66% 30.08 0.0
03 12:35 NE 9 10.00 Overcast BKN025 OVC055 73.2 62.1 68% 30.09 0.0
03 12:15 NE 14 G 17 10.00 Overcast BKN023 OVC055 72 61.9 71% 30.09 0.0
03 11:55 NE 9 10.00 Mostly Cloudy BKN022 BKN060 71.4 62.1 72% 30.09 0.0
03 11:35 NE 13 10.00 Mostly Cloudy BKN020 BKN065 70.5 62.1 75% 30.08 0.0
03 11:15 NE 13 10.00 Mostly Cloudy SCT018 BKN050 BKN065 69.6 62.8 79% 30.09 0.0
03 10:55 NE 8 9.00 Overcast SCT016 OVC050 66.7 62.4 86% 30.1 0.0
03 10:35 NE 9 9.00 Overcast FEW017 OVC050 66 62.6 89% 30.09 0.0
03 10:15 NE 8 9.00 Overcast OVC050 65.5 63 92% 30.08 0.0
03 09:55 NE 6 9.00 Overcast OVC049 64.8 63 94% 30.07 0.0
03 09:35 N 8 9.00 Overcast OVC047 64.4 63.1 96% 30.06 0.0
03 09:15 N 9 9.00 Overcast FEW009 OVC046 63.7 63 98% 30.06 0.0
03 08:55 NE 9 10.00 Overcast FEW008 OVC046 63 62.8 99% 30.04 0.0
03 08:35 N 8 10.00 Overcast FEW008 OVC046 62.8 62.8 100% 30.05 0.0
03 08:15 N 7 10.00 Overcast FEW008 OVC044 62.6 62.6 100% 30.04 0.0
03 07:55 N 10 10.00 Overcast OVC047 62.4 62.4 66.6 62.4 100% 30.03 0.0 0.03
03 07:35 N 7 10.00 Overcast OVC045 62.6 62.6 100% 30.02 0.0
03 07:15 N 8 10.00 Overcast OVC045 62.4 62.4 100% 30.02 0.0
03 06:55 N 7 10.00 Overcast OVC043 62.6 62.6 100% 30.01 0.0
03 06:35 N 5 8.00 Overcast OVC042 62.6 62.6 100% 30.02 0.0
03 06:15 N 5 7.00 Overcast FEW008 OVC041 62.6 62.6 100% 30.02 0.0
03 05:55 N 6 6.00 Light Rain Fog/Mist BKN010 OVC042 62.8 62.8 100% 30.01 0.0 0.01
03 05:35 N 8 7.00 Overcast OVC009 63 63 100% 30 0.0
03 05:15 N 9 6.00 Light Rain Fog/Mist BKN009 OVC039 63 63 100% 29.99 0.0
03 04:55 N 8 6.00 Light Rain Fog/Mist BKN008 OVC037 63.3 63.3 100% 30 0.0 0.01 0.02
03 04:35 N 8 6.00 Light Rain Fog/Mist BKN009 OVC034 63.5 63.5 100% 30 0.0
03 04:15 N 8 6.00 Light Rain Fog/Mist OVC008 63.9 63.9 100% 29.98 0.0
03 03:55 N 8 7.00 Light Rain BKN007 OVC035 64.2 64.2 100% 29.98 0.0 0.01
03 03:35 N 7 7.00 Light Rain BKN008 OVC036 64.4 64.4 100% 29.97 0.0 0.01
03 03:15 NE 10 6.00 Light Rain Fog/Mist SCT007 BKN017 OVC028 64.8 64.8 100% 29.97 0.0
03 02:55 N 7 7.00 Overcast FEW013 OVC027 65.5 65.5 100% 29.98 0.0
03 02:35 N 7 5.00 Light Rain Fog/Mist FEW004 BKN013 BKN023 OVC029 66 66 100% 29.98 0.0
03 02:15 N 9 7.00 Overcast OVC004 66.4 66.4 100% 29.98 0.0
03 01:55 N 8 6.00 Fog/Mist OVC004 66.6 66.6 71.2 66.6 100% 29.98 0.0 0.04 0.09
03 01:35 N 9 4.00 Light Rain Fog/Mist BKN003 BKN012 OVC022 67.5 67.5 100% 29.99 0.0 0.04
03 01:15 N 8 2.50 Light Rain Fog/Mist BKN004 BKN012 OVC017 68.5 68.5 100% 29.98 0.0 0.03
03 00:55 SW 5 5.00 Light Rain Fog/Mist BKN006 OVC012 70.5 70.5 100% 29.98 0.0
03 00:35 SW 5 7.00 Light Rain BKN009 BKN014 OVC024 70.7 70.7 100% 29.98 0.0
03 00:15 SW 3 10.00 Overcast FEW014 OVC023 70.9 70.9 100% 29.97 0.0
02 23:55 Calm 9.00 Overcast SCT013 OVC023 70.7 70.7 100% 29.95 0.0 0.01
02 23:35 W 3 9.00 Overcast OVC023 70.7 70.7 100% 29.94 0.0 0.01
02 23:15 SW 5 7.00 Overcast FEW005 OVC022 70.5 70.5 100% 29.93 0.0
02 22:55 W 6 3.00 Light Rain Fog/Mist SCT004 OVC019 70.7 70.7 100% 29.93 0.0 0.03 0.04
02 22:35 SW 5 5.00 Light Rain Fog/Mist FEW005 OVC018 70.9 70.9 100% 29.93 0.0
02 22:15 SW 5 10.00 Overcast OVC020 71.1 71.1 100% 29.93 0.0
02 21:55 S 3 10.00 Overcast SCT013 OVC021 71.2 71.2 100% 29.91 0.0
02 21:35 S 3 10.00 Overcast BKN013 OVC021 71.1 71.1 100% 29.9 0.0
02 21:15 S 5 10.00 Overcast BKN013 OVC028 71.1 71.1 100% 29.9 0.0
02 20:55 S 5 10.00 Mostly Cloudy SCT028 BKN170 BKN240 71.1 71.1 100% 29.89 0.0 0.01
02 20:35 SW 3 9.00 Mostly Cloudy FEW170 BKN240 70.5 70.5 100% 29.88 0.0 0.01
02 20:15 Calm 8.00 Mostly Cloudy FEW028 SCT210 BKN240 71.2 71.2 100% 29.86 0.0
02 19:55 SW 3 7.00 A Few Clouds FEW034 71.1 71.1 82 68.7 100% 29.87 0.0 0.31
02 19:35 W 3 6.00 Fog/Mist CLR 70.9 70.9 100% 29.87 0.0
02 19:15 NW 3 7.00 A Few Clouds FEW007 71.2 71.2 100% 29.87 0.0
02 18:55 S 5 6.00 Light Rain Fog/Mist BKN095 71.1 71.1 100% 29.86 0.0 0.03
02 18:35 SE 10 4.00 Light Rain Fog/Mist OVC095 71.1 71.1 100% 29.85 0.0 0.03
02 18:15 SW 5 5.00 Light Rain Fog/Mist FEW080 BKN100 OVC120 70.9 70.9 100% 29.89 0.0 0.01
02 17:55 SE 8 5.00 Light Rain Fog/Mist FEW055 BKN095 OVC120 70.2 70.2 100% 29.85 0.0 0.02
02 17:35 S 8 5.00 Light Rain Fog/Mist FEW055 SCT070 BKN100 OVC110 70.2 70.2 100% 29.85 0.0 0.01
02 17:15 SE 5 6.00 Light Rain Fog/Mist FEW090 BKN120 69.8 69.8 100% 29.86 0.0
02 16:55 S 6 6.00 Fog/Mist SCT060 SCT080 BKN130 69.8 69.8 100% 29.87 0.0 0.24 0.26
02 16:35 SW 6 6.00 Fog/Mist SCT055 BKN085 OVC130 69.3 69.3 100% 29.87 0.0 0.24
02 16:15 SW 3 1.75 Light Rain Fog/Mist Thunderstorm in Vicinity BKN055 OVC085 68.9 68.7 99% 29.87 0.0 0.24
02 15:55 NW 14 4.00 Light Rain Fog/Mist Thunderstorm in Vicinity FEW019 SCT040 BKN050 69.4 68 95% 29.9 0.0 0.02
02 15:35 NW 23 G 30 9.00 Thunderstorm in Vicinity and Breezy FEW019 SCT060 BKN085 79 72.3 80% 82 29.9 0.0
02 15:15 SW 12 10.00 A Few Clouds FEW018 81 75.6 84% 87 29.88 0.0
02 14:55 SW 14 10.00 Mostly Cloudy FEW018 BKN075 80.8 75.7 85% 87 29.88 0.0
02 14:35 SW 12 G 22 10.00 Mostly Cloudy FEW019 BKN075 81 75.2 83% 87 29.88 0.0
02 14:15 SW 15 10.00 Mostly Cloudy FEW020 SCT026 BKN080 81.7 75.4 81% 88 29.89 0.0
02 13:55 SW 16 10.00 Mostly Cloudy SCT021 SCT027 BKN200 82.6 74.5 87.4 70.3 77% 89 29.88 0.0
02 13:35 SW 17 G 21 10.00 Mostly Cloudy FEW021 BKN200 83.1 74.3 75% 90 29.88 0.0
02 13:15 SW 17 G 24 10.00 Mostly Cloudy SCT026 SCT090 BKN200 83.3 73.9 73% 90 29.89 0.0
02 12:55 SW 17 10.00 Mostly Cloudy FEW029 BKN200 84.6 74.3 71% 92 29.88 0.0
02 12:35 SW 23 G 26 10.00 Mostly Cloudy and Breezy FEW028 BKN200 85.8 73.2 66% 93 29.88 0.0
02 12:15 SW 18 G 30 10.00 Mostly Cloudy SCT031 BKN200 87.4 73 62% 95 29.88 0.0
02 11:55 SW 14 G 20 10.00 Overcast BKN035 OVC190 84.4 72 66% 90 29.88 0.0
02 11:35 SW 13 10.00 Mostly Cloudy FEW031 SCT039 BKN200 BKN230 84 70.7 64% 89 29.89 0.0
02 11:15 SW 13 G 18 10.00 Mostly Cloudy FEW030 SCT200 BKN230 84.7 71.4 64% 90 29.88 0.0
02 10:55 SW 9 10.00 Mostly Cloudy FEW049 BKN200 82.4 72.3 72% 88 29.88 0.0
02 10:35 SW 8 10.00 Overcast SCT047 BKN055 OVC190 79.7 72.3 78% 83 29.89 0.0
02 10:15 SW 8 10.00 Mostly Cloudy BKN047 BKN200 78.3 72.3 82% 81 29.89 0.0
02 09:55 SW 7 10.00 Mostly Cloudy BKN043 77 72 85% 78 29.88 0.0
02 09:35 SW 8 10.00 Mostly Cloudy BKN042 76.1 71.6 86% 77 29.88 0.0
02 08:55 S 9 10.00 Fair CLR 73.2 71.1 93% 29.85 0.0
02 08:35 S 6 10.00 Fair CLR 72.1 71.2 97% 29.86 0.0
02 08:15 S 7 10.00 Fair CLR 70.7 70.7 100% 29.85 0.0
02 07:55 S 8 10.00 Fair CLR 70.2 70.2 71.6 67.8 100% 29.85 0.0
02 07:35 S 6 10.00 Fair CLR 69.8 69.8 100% 29.85 0.0
02 07:15 S 7 10.00 Fair CLR 69.3 69.3 100% 29.85 0.0
02 06:55 Calm 8.00 Fair CLR 68.4 68.4 100% 29.84 0.0
Date Time (edt) Wind (mph) Vis. (mi.) Weather Sky Cond. Air Dwpt Max. Min. Relative Humidity Wind Chill (°F) Heat Index (°F) altimeter (in) sea level (mb) 1 hr 3 hr 6 hr
6 hour
Temperature (ºF) Pressure Precipitation (in)